Time;durP1;ratioP1;P1;durP2;ratioP2;P2;SDS_P1;SDS_P2;PMS_P1;PMS_P2;Temp;Humidity;BMP_temperature;BMP_pressure;BME280_temperature;BME280_humidity;BME280_pressure;Samples;Min_cycle;Max_cycle;Signal;HPM_P1;HPM_P2
2021/10/29 00:01:08;;;;;;;23.47;17.33;;;7.80;99.90;;;;;;5091653;28;20216;-60
2021/10/29 00:03:36;;;;;;;23.07;16.73;;;7.80;99.90;;;;;;5091141;28;20660;-60
2021/10/29 00:06:03;;;;;;;25.13;16.80;;;7.70;99.90;;;;;;5091249;28;20220;-61
2021/10/29 00:08:32;;;;;;;21.53;15.63;;;7.70;99.90;;;;;;5091062;28;20675;-60
2021/10/29 00:10:58;;;;;;;19.83;15.23;;;7.70;99.90;;;;;;5091319;28;20251;-60
2021/10/29 00:13:25;;;;;;;17.97;13.10;;;7.60;99.90;;;;;;5090901;28;20204;-60
2021/10/29 00:15:52;;;;;;;16.87;12.13;;;7.60;99.90;;;;;;5091112;28;20613;-61
2021/10/29 00:18:19;;;;;;;19.67;12.50;;;7.60;99.90;;;;;;5091499;28;20201;-60
2021/10/29 00:20:46;;;;;;;18.97;11.93;;;7.60;99.90;;;;;;5091182;28;20208;-60
2021/10/29 00:23:12;;;;;;;15.07;11.40;;;7.60;99.90;;;;;;5091325;28;20222;-61
2021/10/29 00:25:40;;;;;;;16.40;11.03;;;7.60;99.90;;;;;;5090893;28;20684;-61
2021/10/29 00:28:07;;;;;;;17.13;11.70;;;7.50;99.90;;;;;;5091038;28;20244;-61
2021/10/29 00:30:34;;;;;;;18.43;12.17;;;7.50;99.90;;;;;;5091294;28;20204;-61
2021/10/29 00:33:00;;;;;;;15.53;11.73;;;7.50;99.90;;;;;;5091445;28;20203;-61
2021/10/29 00:35:27;;;;;;;20.83;14.03;;;7.40;99.90;;;;;;5090790;28;20698;-60
2021/10/29 00:37:54;;;;;;;17.57;12.53;;;7.40;99.90;;;;;;5091226;28;20224;-61
2021/10/29 00:40:21;;;;;;;17.73;13.00;;;7.40;99.90;;;;;;5091035;28;20204;-61
2021/10/29 00:42:49;;;;;;;15.43;11.73;;;7.30;99.90;;;;;;5090995;28;20215;-60
2021/10/29 00:45:16;;;;;;;13.30;10.27;;;7.30;99.90;;;;;;5090999;28;20200;-60
2021/10/29 00:47:43;;;;;;;12.73;10.43;;;7.30;99.90;;;;;;5090900;28;20228;-60
2021/10/29 00:50:10;;;;;;;13.50;10.87;;;7.30;99.90;;;;;;5091236;28;20656;-61
2021/10/29 00:52:37;;;;;;;12.47;9.53;;;7.20;99.90;;;;;;5091573;28;20211;-60
2021/10/29 00:55:05;;;;;;;14.30;10.67;;;7.20;99.90;;;;;;5090618;28;20231;-61
2021/10/29 00:57:32;;;;;;;12.70;9.97;;;7.00;99.90;;;;;;5090934;28;20224;-60
2021/10/29 01:00:00;;;;;;;14.23;11.73;;;6.90;99.90;;;;;;5090546;28;20679;-60
2021/10/29 01:02:27;;;;;;;14.97;11.70;;;6.90;99.90;;;;;;5091048;28;20204;-60
2021/10/29 01:04:55;;;;;;;14.33;11.43;;;6.90;99.90;;;;;;5090689;28;20625;-60
2021/10/29 01:07:22;;;;;;;16.73;12.17;;;6.90;99.90;;;;;;5090510;28;20274;-60
2021/10/29 01:09:49;;;;;;;16.03;10.80;;;6.90;99.90;;;;;;5090412;28;20212;-60
2021/10/29 01:12:16;;;;;;;14.73;11.37;;;6.90;99.90;;;;;;5090787;28;20208;-61
2021/10/29 01:14:43;;;;;;;16.13;11.33;;;6.90;99.90;;;;;;5090917;28;20773;-60
2021/10/29 01:17:11;;;;;;;15.03;10.87;;;6.90;99.90;;;;;;5090607;28;20228;-60
2021/10/29 01:19:41;;;;;;;16.13;11.23;;;6.90;99.90;;;;;;5090697;28;20212;-60
2021/10/29 01:22:09;;;;;;;12.07;10.50;;;6.80;99.90;;;;;;5091034;28;20269;-60
2021/10/29 01:24:36;;;;;;;12.77;10.27;;;6.80;99.90;;;;;;5090463;28;20211;-61
2021/10/29 01:27:10;;;;;;;15.23;11.57;;;6.80;99.90;;;;;;5090494;28;20231;-60
2021/10/29 01:29:38;;;;;;;14.73;11.17;;;6.70;99.90;;;;;;5090386;28;20591;-60
2021/10/29 01:32:06;;;;;;;13.20;10.13;;;6.70;99.90;;;;;;5091875;28;20236;-60
2021/10/29 01:34:33;;;;;;;14.57;10.90;;;6.70;99.90;;;;;;5093801;28;20200;-60
2021/10/29 01:37:00;;;;;;;13.33;10.20;;;6.70;99.90;;;;;;5093865;28;20235;-60
2021/10/29 01:39:28;;;;;;;15.13;11.43;;;6.70;99.90;;;;;;5094054;28;20212;-61
2021/10/29 01:41:55;;;;;;;13.33;10.17;;;6.70;99.90;;;;;;5094095;28;20208;-60
2021/10/29 01:44:22;;;;;;;12.67;10.03;;;6.70;99.90;;;;;;5093892;28;20215;-60
2021/10/29 01:46:49;;;;;;;14.73;11.47;;;6.70;99.90;;;;;;5093729;28;20232;-60
2021/10/29 01:49:17;;;;;;;14.77;11.13;;;6.70;99.90;;;;;;5093549;28;20232;-60
2021/10/29 01:51:43;;;;;;;14.63;10.63;;;6.70;99.90;;;;;;5093736;28;20208;-60
2021/10/29 01:54:10;;;;;;;14.23;11.00;;;6.70;99.90;;;;;;5093909;28;20238;-60
2021/10/29 01:56:38;;;;;;;16.23;11.43;;;6.70;99.90;;;;;;5093612;28;20651;-60
2021/10/29 01:59:05;;;;;;;20.90;13.87;;;6.70;99.90;;;;;;5093610;28;20212;-60
2021/10/29 02:01:32;;;;;;;14.53;10.57;;;6.60;99.90;;;;;;5093536;28;20258;-60
2021/10/29 02:03:59;;;;;;;16.87;11.33;;;6.60;99.90;;;;;;5093447;28;20200;-60
2021/10/29 02:06:26;;;;;;;16.00;11.40;;;6.60;99.90;;;;;;5093346;28;20730;-60
2021/10/29 02:08:53;;;;;;;15.07;11.37;;;6.50;99.90;;;;;;5093601;28;20224;-60
2021/10/29 02:11:19;;;;;;;22.80;15.27;;;6.50;99.90;;;;;;5093837;28;20211;-60
2021/10/29 02:13:47;;;;;;;22.63;14.30;;;6.50;99.90;;;;;;5093794;28;20200;-60
2021/10/29 02:16:14;;;;;;;17.27;13.57;;;6.50;99.90;;;;;;5093420;28;20221;-61
2021/10/29 02:18:41;;;;;;;19.47;14.57;;;6.50;99.90;;;;;;5093485;28;20200;-60
2021/10/29 02:21:07;;;;;;;18.80;13.87;;;6.40;99.90;;;;;;5093481;28;20219;-61
2021/10/29 02:23:34;;;;;;;16.33;13.03;;;6.40;99.90;;;;;;5093116;28;20204;-61
2021/10/29 02:26:01;;;;;;;17.33;12.77;;;6.40;99.90;;;;;;5093269;28;20746;-60
2021/10/29 02:28:27;;;;;;;18.93;13.63;;;6.30;99.90;;;;;;5093067;28;20235;-60
2021/10/29 02:30:56;;;;;;;16.47;12.10;;;6.40;99.90;;;;;;5093109;28;20208;-61
2021/10/29 02:33:23;;;;;;;17.73;12.23;;;6.30;99.90;;;;;;5093314;28;20208;-61
2021/10/29 02:35:49;;;;;;;21.90;14.93;;;6.30;99.90;;;;;;5093132;28;20212;-61
2021/10/29 02:38:16;;;;;;;16.30;12.60;;;6.30;99.90;;;;;;5093052;28;20291;-61
2021/10/29 02:40:43;;;;;;;17.97;11.63;;;6.30;99.90;;;;;;5092970;28;20605;-61
2021/10/29 02:43:10;;;;;;;14.97;10.83;;;6.20;99.90;;;;;;5092763;28;20578;-61
2021/10/29 02:45:37;;;;;;;14.43;10.40;;;6.20;99.90;;;;;;5092516;28;20672;-61
2021/10/29 02:48:05;;;;;;;18.80;12.77;;;6.20;99.90;;;;;;5092762;28;20231;-61
2021/10/29 02:50:33;;;;;;;12.27;9.60;;;6.20;99.90;;;;;;5092893;28;20204;-61
2021/10/29 02:53:02;;;;;;;15.07;10.87;;;6.10;99.90;;;;;;5092655;28;20223;-61
2021/10/29 02:55:28;;;;;;;12.30;9.73;;;6.20;99.90;;;;;;5092493;28;20817;-60
2021/10/29 02:57:55;;;;;;;14.50;10.50;;;6.10;99.90;;;;;;5092257;28;20319;-61
2021/10/29 03:00:22;;;;;;;16.53;12.63;;;6.10;99.90;;;;;;5092718;28;20205;-60
2021/10/29 03:02:48;;;;;;;25.43;16.13;;;6.10;99.90;;;;;;5092521;28;20208;-60
2021/10/29 03:05:16;;;;;;;38.57;25.33;;;6.10;99.90;;;;;;5092177;28;20672;-61
2021/10/29 03:07:43;;;;;;;20.27;14.13;;;6.00;99.90;;;;;;5092243;28;20228;-61
2021/10/29 03:10:12;;;;;;;21.13;13.53;;;6.00;99.90;;;;;;5092306;28;20668;-61
2021/10/29 03:12:40;;;;;;;15.03;12.20;;;6.00;99.90;;;;;;5092068;28;20604;-61
2021/10/29 03:15:09;;;;;;;15.50;13.17;;;6.00;99.90;;;;;;5092305;28;20218;-61
2021/10/29 03:17:35;;;;;;;14.53;11.80;;;5.90;99.90;;;;;;5092176;28;20220;-61
2021/10/29 03:20:03;;;;;;;14.47;11.63;;;5.90;99.90;;;;;;5092471;28;20307;-61
2021/10/29 03:22:31;;;;;;;23.07;14.33;;;5.90;99.90;;;;;;5092012;28;20660;-60
2021/10/29 03:24:58;;;;;;;15.47;12.10;;;5.80;99.90;;;;;;5091819;28;20623;-60
2021/10/29 03:27:24;;;;;;;14.90;11.67;;;5.80;99.90;;;;;;5092073;28;20228;-60
2021/10/29 03:29:51;;;;;;;18.37;12.53;;;5.70;99.90;;;;;;5091865;28;20668;-59
2021/10/29 03:32:21;;;;;;;18.20;14.00;;;5.60;99.90;;;;;;5092216;28;20208;-60
2021/10/29 03:34:47;;;;;;;16.07;12.50;;;5.60;99.90;;;;;;5091963;28;20208;-59
2021/10/29 03:37:24;;;;;;;15.80;12.27;;;5.60;99.90;;;;;;5091917;28;20258;-59
2021/10/29 03:39:57;;;;;;;20.33;14.00;;;5.60;99.90;;;;;;5092198;28;20207;-60
2021/10/29 03:42:27;;;;;;;15.23;11.40;;;5.50;99.90;;;;;;5092006;28;20204;-60
2021/10/29 03:45:00;;;;;;;15.50;11.97;;;5.40;99.90;;;;;;5091680;28;20299;-59
2021/10/29 03:47:29;;;;;;;14.07;11.60;;;5.30;99.90;;;;;;5091706;28;20518;-59
2021/10/29 03:50:05;;;;;;;16.03;11.97;;;5.30;99.90;;;;;;5091408;28;20208;-60
2021/10/29 03:52:35;;;;;;;14.03;11.90;;;5.20;99.90;;;;;;5091780;28;20265;-59
2021/10/29 03:55:07;;;;;;;17.17;12.37;;;5.10;99.90;;;;;;5091110;28;20205;-59
2021/10/29 03:57:35;;;;;;;16.07;12.00;;;5.10;99.90;;;;;;5091334;28;20251;-59
2021/10/29 04:00:02;;;;;;;14.43;11.87;;;5.10;99.90;;;;;;5091279;28;20204;-59
2021/10/29 04:02:29;;;;;;;17.07;12.20;;;5.00;99.90;;;;;;5091298;28;20636;-60
2021/10/29 04:04:56;;;;;;;15.03;11.87;;;4.90;99.90;;;;;;5091390;28;20208;-59
2021/10/29 04:07:22;;;;;;;13.97;10.87;;;4.90;99.90;;;;;;5091350;28;20228;-60
2021/10/29 04:09:49;;;;;;;18.00;13.90;;;4.90;99.90;;;;;;5091179;28;20211;-58
2021/10/29 04:12:17;;;;;;;17.80;13.07;;;4.90;99.90;;;;;;5091216;28;20204;-60
2021/10/29 04:14:45;;;;;;;20.00;15.70;;;4.90;99.90;;;;;;5090868;28;20200;-59
2021/10/29 04:17:11;;;;;;;15.57;12.63;;;5.00;99.90;;;;;;5090979;28;20224;-60
2021/10/29 04:19:38;;;;;;;17.67;12.53;;;5.00;99.90;;;;;;5090972;28;20699;-59
2021/10/29 04:22:05;;;;;;;16.70;12.77;;;5.00;99.90;;;;;;5091232;28;20283;-60
2021/10/29 04:24:31;;;;;;;16.20;12.83;;;5.00;99.90;;;;;;5091073;28;20204;-59
2021/10/29 04:27:00;;;;;;;17.10;13.70;;;5.10;99.90;;;;;;5090852;28;20711;-60
2021/10/29 04:29:35;;;;;;;19.13;13.53;;;5.10;99.90;;;;;;5090867;28;20234;-59
2021/10/29 04:32:03;;;;;;;17.03;13.63;;;5.10;99.90;;;;;;5091331;28;20208;-61
2021/10/29 04:34:30;;;;;;;19.53;14.67;;;5.20;99.90;;;;;;5090850;28;20593;-59
2021/10/29 04:36:59;;;;;;;16.73;13.00;;;5.20;99.90;;;;;;5090744;28;20742;-60
2021/10/29 04:39:26;;;;;;;22.33;15.57;;;5.30;99.90;;;;;;5090776;28;20223;-60
2021/10/29 04:41:53;;;;;;;19.17;12.87;;;5.30;99.90;;;;;;5090864;28;20582;-59
2021/10/29 04:44:21;;;;;;;19.13;14.50;;;5.30;99.90;;;;;;5090700;28;20220;-59
2021/10/29 04:46:50;;;;;;;16.83;13.80;;;5.30;99.90;;;;;;5091008;28;20493;-60
2021/10/29 04:49:16;;;;;;;17.07;12.40;;;5.30;99.90;;;;;;5090707;28;20629;-59
2021/10/29 04:51:44;;;;;;;27.17;17.07;;;5.20;99.90;;;;;;5090587;28;20211;-59
2021/10/29 04:54:10;;;;;;;16.50;12.47;;;5.20;99.90;;;;;;5090505;28;20204;-59
2021/10/29 04:56:37;;;;;;;17.43;12.80;;;5.20;99.90;;;;;;5090520;28;20224;-59
2021/10/29 04:59:04;;;;;;;16.07;12.87;;;5.10;99.90;;;;;;5090882;28;20200;-59
2021/10/29 05:01:31;;;;;;;17.10;12.23;;;5.10;99.90;;;;;;5091042;28;20204;-59
2021/10/29 05:04:00;;;;;;;17.13;12.90;;;5.00;99.90;;;;;;5090747;28;20205;-59
2021/10/29 05:06:26;;;;;;;15.73;12.57;;;5.00;99.90;;;;;;5090981;28;20260;-60
2021/10/29 05:08:53;;;;;;;16.00;12.70;;;5.10;99.90;;;;;;5094176;28;20249;-59
2021/10/29 05:11:20;;;;;;;16.50;13.10;;;5.10;99.90;;;;;;5094192;28;20208;-59
2021/10/29 05:13:46;;;;;;;18.30;13.33;;;5.10;99.90;;;;;;5094534;28;20204;-59
2021/10/29 05:16:13;;;;;;;16.13;12.93;;;5.00;99.90;;;;;;5094285;28;20617;-60
2021/10/29 05:18:40;;;;;;;16.77;13.33;;;5.10;99.90;;;;;;5094218;28;20201;-59
2021/10/29 05:21:08;;;;;;;17.87;13.30;;;5.10;99.90;;;;;;5094410;28;20204;-59
2021/10/29 05:23:34;;;;;;;17.37;13.10;;;5.00;99.90;;;;;;5094320;28;20207;-59
2021/10/29 05:26:01;;;;;;;19.60;13.43;;;5.00;99.90;;;;;;5094377;28;20689;-58
2021/10/29 05:28:28;;;;;;;17.80;13.73;;;5.00;99.90;;;;;;5094440;28;20247;-59
2021/10/29 05:30:54;;;;;;;18.87;14.37;;;5.10;99.90;;;;;;5094009;28;20200;-60
2021/10/29 05:33:21;;;;;;;18.30;14.20;;;5.10;99.90;;;;;;5094073;28;20223;-59
2021/10/29 05:35:48;;;;;;;18.77;14.70;;;5.20;99.90;;;;;;5094135;28;20216;-59
2021/10/29 05:38:16;;;;;;;18.83;14.03;;;5.20;99.90;;;;;;5094481;28;20203;-59
2021/10/29 05:40:43;;;;;;;19.53;14.13;;;5.30;99.90;;;;;;5094582;28;20205;-61
2021/10/29 05:43:10;;;;;;;19.60;14.60;;;5.30;99.90;;;;;;5093873;28;20231;-59
2021/10/29 05:45:36;;;;;;;20.90;14.37;;;5.40;99.90;;;;;;5093838;28;20211;-59
2021/10/29 05:48:05;;;;;;;18.37;14.73;;;5.30;99.90;;;;;;5093667;28;20242;-61
2021/10/29 05:50:32;;;;;;;20.73;15.20;;;5.40;99.90;;;;;;5094026;28;20779;-60
2021/10/29 05:53:02;;;;;;;18.77;15.07;;;5.50;99.90;;;;;;5093769;28;20215;-59
2021/10/29 05:55:30;;;;;;;20.73;14.60;;;5.40;99.90;;;;;;5093951;28;20232;-59
2021/10/29 05:57:56;;;;;;;17.70;12.87;;;5.30;99.90;;;;;;5093696;28;20704;-59
2021/10/29 06:00:26;;;;;;;17.60;13.40;;;5.40;99.90;;;;;;5093985;28;20229;-60
2021/10/29 06:02:53;;;;;;;19.40;13.97;;;5.60;99.90;;;;;;5093821;28;20204;-59
2021/10/29 06:05:20;;;;;;;21.17;13.87;;;5.70;99.90;;;;;;5093425;28;20204;-59
2021/10/29 06:07:47;;;;;;;18.20;14.10;;;5.80;99.90;;;;;;5093466;28;20633;-59
2021/10/29 06:10:15;;;;;;;18.13;13.10;;;6.00;99.90;;;;;;5093826;28;20231;-60
2021/10/29 06:12:44;;;;;;;15.90;12.50;;;6.00;99.90;;;;;;5093645;28;20576;-60
2021/10/29 06:15:14;;;;;;;18.20;14.03;;;6.10;99.90;;;;;;5093400;28;20580;-60
2021/10/29 06:17:41;;;;;;;16.10;12.33;;;6.10;99.90;;;;;;5093175;28;20255;-60
2021/10/29 06:20:09;;;;;;;15.17;11.80;;;6.20;99.90;;;;;;5093579;28;20206;-59
2021/10/29 06:22:38;;;;;;;16.77;12.33;;;6.20;99.90;;;;;;5093957;28;20407;-60
2021/10/29 06:25:11;;;;;;;14.53;11.23;;;6.30;99.90;;;;;;5093358;28;20660;-59
2021/10/29 06:30:24;;;;;;;17.27;11.73;;;6.40;99.90;;;;;;5093901;28;20207;-60
2021/10/29 06:32:50;;;;;;;14.07;11.33;;;6.50;99.90;;;;;;5093309;28;20227;-60
2021/10/29 06:35:17;;;;;;;12.90;11.20;;;6.50;99.90;;;;;;5093047;28;20207;-61
2021/10/29 06:37:44;;;;;;;13.13;10.73;;;6.60;99.90;;;;;;5088379;22;20238;-62
2021/10/29 06:40:14;;;;;;;12.87;10.30;;;6.70;99.90;;;;;;5052614;28;20560;-59
2021/10/29 06:42:46;;;;;;;12.83;10.43;;;6.60;99.90;;;;;;5052421;28;20572;-58
2021/10/29 06:45:23;;;;;;;12.83;10.60;;;6.80;99.90;;;;;;5052635;28;20267;-60
2021/10/29 06:48:02;;;;;;;11.20;10.00;;;7.20;99.90;;;;;;5052474;28;20715;-61
2021/10/29 07:01:38;;;;;;;11.10;8.10;;;9.80;99.90;;;;;;5052722;28;20239;-61
2021/10/29 07:04:27;;;;;;;10.27;8.20;;;9.70;99.90;;;;;;5052569;28;20215;-59
2021/10/29 07:13:06;;;;;;;9.90;8.73;;;9.00;99.90;;;;;;5051967;28;20730;-59
2021/10/29 07:40:04;;;;;;;11.77;9.83;;;10.20;99.90;;;;;;5051413;28;20204;-57
2021/10/29 07:42:35;;;;;;;10.23;8.57;;;10.30;99.90;;;;;;5051444;28;20275;-58
2021/10/29 07:45:03;;;;;;;11.60;9.50;;;10.30;99.90;;;;;;5051225;28;20209;-61
2021/10/29 07:47:30;;;;;;;12.13;9.10;;;10.40;99.90;;;;;;5051088;28;20225;-60
2021/10/29 07:49:56;;;;;;;11.73;9.67;;;10.60;99.90;;;;;;5050967;28;20739;-60
2021/10/29 07:52:25;;;;;;;11.63;9.07;;;10.70;99.90;;;;;;5051316;28;20212;-59
2021/10/29 07:54:52;;;;;;;11.17;9.63;;;10.70;99.90;;;;;;5051111;28;20216;-58
2021/10/29 07:57:19;;;;;;;15.97;9.43;;;10.40;99.90;;;;;;5050983;28;20229;-60
2021/10/29 07:59:47;;;;;;;11.97;9.17;;;10.20;99.90;;;;;;5050795;28;20687;-59
2021/10/29 08:02:15;;;;;;;12.17;9.17;;;9.90;99.90;;;;;;5051291;28;20206;-59
2021/10/29 08:04:42;;;;;;;11.77;8.97;;;9.70;99.90;;;;;;5050718;28;20688;-58
2021/10/29 08:07:08;;;;;;;10.93;9.00;;;9.70;99.90;;;;;;5050899;28;20237;-61
2021/10/29 08:09:37;;;;;;;11.07;9.17;;;9.80;99.90;;;;;;5050563;28;20759;-59
2021/10/29 08:12:04;;;;;;;12.27;8.93;;;10.00;99.90;;;;;;5050935;28;20251;-61
2021/10/29 08:14:31;;;;;;;10.37;8.30;;;10.40;99.90;;;;;;5050686;28;20216;-59
2021/10/29 08:16:57;;;;;;;10.70;9.10;;;10.50;99.90;;;;;;5051859;28;20233;-58
2021/10/29 08:19:28;;;;;;;12.23;7.97;;;10.50;99.90;;;;;;5050722;28;20201;-59
2021/10/29 08:21:55;;;;;;;11.57;8.70;;;10.60;99.90;;;;;;5050560;28;20584;-59
2021/10/29 08:24:22;;;;;;;10.67;9.00;;;10.80;99.90;;;;;;5050654;28;20263;-61
2021/10/29 08:26:51;;;;;;;9.40;8.33;;;10.80;99.90;;;;;;5050677;28;20233;-59
2021/10/29 08:29:18;;;;;;;11.33;9.73;;;10.90;99.90;;;;;;5050598;28;20228;-59
2021/10/29 08:31:45;;;;;;;11.77;9.13;;;11.10;99.90;;;;;;5051010;28;20240;-58
2021/10/29 08:34:12;;;;;;;11.23;9.00;;;11.30;99.90;;;;;;5050629;28;20205;-59
2021/10/29 08:36:40;;;;;;;11.97;9.60;;;11.60;99.90;;;;;;5050435;28;20612;-59
2021/10/29 08:39:07;;;;;;;10.47;9.27;;;11.90;99.90;;;;;;5050522;28;20688;-61
2021/10/29 08:41:35;;;;;;;11.13;8.47;;;12.10;99.90;;;;;;5053018;28;20202;-59
2021/10/29 08:44:05;;;;;;;10.50;9.27;;;12.10;99.90;;;;;;5054730;28;20205;-58
2021/10/29 08:46:32;;;;;;;13.63;10.30;;;12.20;99.90;;;;;;5054825;28;20225;-60
2021/10/29 08:49:00;;;;;;;9.67;8.70;;;12.30;99.90;;;;;;5054659;28;20233;-62
2021/10/29 08:51:28;;;;;;;10.93;9.63;;;12.40;99.90;;;;;;5054959;28;20205;-62
2021/10/29 08:53:55;;;;;;;11.43;9.27;;;12.50;99.90;;;;;;5054462;28;20208;-58
2021/10/29 08:56:23;;;;;;;10.60;9.17;;;12.70;99.90;;;;;;5054288;28;20257;-59
2021/10/29 08:59:13;;;;;;;12.03;9.77;;;12.80;99.90;;;;;;5054420;28;20201;-59
2021/10/29 09:01:56;;;;;;;12.17;9.20;;;13.10;99.90;;;;;;5054541;28;20663;-59
2021/10/29 09:04:32;;;;;;;10.90;8.80;;;13.10;99.90;;;;;;5054205;28;20205;-58
2021/10/29 09:07:07;;;;;;;10.03;8.97;;;13.30;99.90;;;;;;5054336;28;20354;-58
2021/10/29 09:09:55;;;;;;;14.53;9.07;;;13.30;99.90;;;;;;5053960;28;20725;-61
2021/10/29 09:32:03;;;;;;;9.77;7.97;;;14.10;99.90;;;;;;5053924;28;20188;-59
2021/10/29 09:34:30;;;;;;;9.60;8.37;;;14.20;99.90;;;;;;5053852;28;20241;-58
2021/10/29 09:36:56;;;;;;;9.37;8.47;;;14.30;99.90;;;;;;5053547;28;20236;-59
2021/10/29 09:39:26;;;;;;;10.00;8.67;;;14.20;99.90;;;;;;5053553;28;20202;-60
2021/10/29 09:42:03;;;;;;;10.77;8.63;;;14.10;99.90;;;;;;5053403;28;20209;-60
2021/10/29 09:44:39;;;;;;;9.97;8.33;;;14.20;99.90;;;;;;5053799;28;20263;-61
2021/10/29 09:47:08;;;;;;;11.07;8.93;;;14.20;99.90;;;;;;5053521;28;20229;-61
2021/10/29 09:49:38;;;;;;;10.53;8.07;;;14.20;99.90;;;;;;5053572;28;20230;-60
2021/10/29 09:52:29;;;;;;;14.23;9.10;;;14.30;99.90;;;;;;5053974;28;20218;-59
2021/10/29 09:55:09;;;;;;;10.03;8.10;;;14.30;99.90;;;;;;5053591;28;20292;-63
2021/10/29 09:57:37;;;;;;;9.93;7.73;;;14.20;99.90;;;;;;5053479;28;20232;-63
2021/10/29 10:00:07;;;;;;;8.60;7.17;;;14.00;99.90;;;;;;5053506;28;20280;-59
2021/10/29 10:02:35;;;;;;;8.50;7.60;;;14.00;99.90;;;;;;5053258;28;20725;-61
2021/10/29 10:05:05;;;;;;;11.30;7.10;;;13.90;99.90;;;;;;5053247;28;20209;-58
2021/10/29 10:07:35;;;;;;;9.73;7.87;;;13.70;99.90;;;;;;5053188;28;20222;-60
2021/10/29 10:10:03;;;;;;;9.37;8.10;;;13.70;99.90;;;;;;5053190;28;20252;-60
2021/10/29 10:12:33;;;;;;;9.53;8.63;;;13.80;99.90;;;;;;5053237;28;20225;-60
2021/10/29 10:15:01;;;;;;;10.60;8.80;;;14.00;99.90;;;;;;5052960;28;20202;-60
2021/10/29 10:17:29;;;;;;;9.10;8.17;;;14.30;99.90;;;;;;5053205;28;20226;-61
2021/10/29 10:19:58;;;;;;;12.87;10.20;;;14.60;99.90;;;;;;5053122;28;20229;-60
2021/10/29 10:22:28;;;;;;;12.73;8.80;;;14.90;99.90;;;;;;5053092;28;20214;-61
2021/10/29 10:24:59;;;;;;;11.23;8.10;;;15.00;99.90;;;;;;5052800;28;20259;-61
2021/10/29 10:27:51;;;;;;;8.67;7.43;;;15.20;99.90;;;;;;5052767;28;20229;-61
2021/10/29 10:30:40;;;;;;;10.40;8.60;;;15.40;99.90;;;;;;5052910;28;20232;-60
2021/10/29 10:42:09;;;;;;;9.17;7.90;;;15.70;99.90;;;;;;5052908;28;20235;-60
2021/10/29 10:44:48;;;;;;;10.40;9.10;;;15.80;99.90;;;;;;5052643;28;20236;-59
2021/10/29 10:47:21;;;;;;;10.33;8.03;;;16.00;99.90;;;;;;5052703;28;20732;-61
2021/10/29 10:50:09;;;;;;;10.67;8.40;;;16.10;99.90;;;;;;5053400;28;20219;-59
2021/10/29 10:53:21;;;;;;;10.23;8.43;;;16.30;99.90;;;;;;5053167;28;20210;-65
2021/10/29 10:55:58;;;;;;;10.80;8.97;;;16.40;99.90;;;;;;5052494;28;20212;-60
2021/10/29 10:58:32;;;;;;;11.50;9.20;;;16.40;99.90;;;;;;5049876;28;20307;-58
2021/10/29 11:01:11;;;;;;;9.67;8.20;;;16.40;99.90;;;;;;5052440;28;20224;-60
2021/10/29 11:07:03;;;;;;;13.17;9.50;;;16.70;99.90;;;;;;5040283;28;20306;-59
2021/10/29 11:09:59;;;;;;;14.33;9.53;;;16.70;99.90;;;;;;5051452;28;20229;-63
2021/10/29 11:12:50;;;;;;;10.63;9.50;;;16.60;99.90;;;;;;5052244;28;20270;-62
2021/10/29 11:15:20;;;;;;;10.27;9.10;;;16.50;99.90;;;;;;5051856;28;20210;-60
2021/10/29 11:17:50;;;;;;;11.13;8.77;;;16.60;99.90;;;;;;5051323;28;20256;-58
2021/10/29 11:20:41;;;;;;;10.27;8.97;;;16.70;99.90;;;;;;5051629;28;20205;-60
2021/10/29 11:23:11;;;;;;;13.37;11.30;;;16.70;99.90;;;;;;5051634;28;20206;-62
2021/10/29 11:25:58;;;;;;;11.20;9.95;;;16.90;99.90;;;;;;5051328;28;20213;-59
2021/10/29 11:28:30;;;;;;;12.13;9.40;;;17.00;99.90;;;;;;5051100;28;20378;-59
2021/10/29 11:30:59;;;;;;;10.83;9.07;;;17.20;99.90;;;;;;5051742;28;20233;-62
2021/10/29 11:33:26;;;;;;;10.70;9.13;;;17.30;99.90;;;;;;5051872;28;20220;-61
2021/10/29 11:36:01;;;;;;;11.02;8.95;;;17.40;99.90;;;;;;5051285;28;20212;-66
2021/10/29 11:38:31;;;;;;;11.43;9.67;;;17.50;99.90;;;;;;5051281;28;20213;-59
2021/10/29 11:41:00;;;;;;;10.63;9.52;;;17.50;99.90;;;;;;5051110;28;20213;-63
2021/10/29 11:43:29;;;;;;;13.93;9.45;;;17.60;99.90;;;;;;5051627;28;20259;-60
2021/10/29 11:45:57;;;;;;;10.00;8.90;;;17.60;99.90;;;;;;5051316;28;20275;-68
2021/10/29 11:48:24;;;;;;;12.00;9.43;;;17.60;99.90;;;;;;5051108;28;20229;-59
2021/10/29 11:51:07;;;;;;;11.38;9.38;;;17.70;99.90;;;;;;5050983;28;20320;-58
2021/10/29 11:53:37;;;;;;;9.43;8.43;;;17.80;99.90;;;;;;5051165;28;20216;-58
2021/10/29 11:56:12;;;;;;;11.13;9.87;;;17.80;99.90;;;;;;5051193;28;20212;-60
2021/10/29 11:58:49;;;;;;;9.70;8.70;;;17.80;99.90;;;;;;5051013;28;20209;-59
2021/10/29 12:01:30;;;;;;;10.73;9.52;;;17.80;99.90;;;;;;5051057;28;20254;-60
2021/10/29 12:09:27;;;;;;;10.68;9.57;;;17.70;99.90;;;;;;5050938;28;20208;-59
2021/10/29 12:12:04;;;;;;;11.17;8.83;;;17.80;99.90;;;;;;5050942;28;20225;-59
2021/10/29 12:14:32;;;;;;;15.68;10.45;;;17.90;99.90;;;;;;5051065;28;20334;-59
2021/10/29 12:17:06;;;;;;;13.00;9.90;;;18.10;99.90;;;;;;5050380;28;20229;-60
2021/10/29 12:19:36;;;;;;;10.68;9.57;;;18.20;99.90;;;;;;5050620;28;20204;-58
2021/10/29 12:22:11;;;;;;;13.50;9.32;;;18.30;99.90;;;;;;5051116;28;20209;-60
2021/10/29 12:24:45;;;;;;;11.02;9.02;;;18.40;99.90;;;;;;5050262;28;20574;-57
2021/10/29 12:27:23;;;;;;;13.30;8.80;;;18.50;99.90;;;;;;5050689;28;20235;-60
2021/10/29 12:30:11;;;;;;;13.00;8.75;;;18.50;99.90;;;;;;5050453;28;20209;-59
2021/10/29 12:38:34;;;;;;;13.02;9.75;;;18.80;99.90;;;;;;5115565;23;20238;-62
2021/10/29 13:03:45;;;;;;;9.07;7.53;;;19.20;99.90;;;;;;5111365;28;20211;-61
2021/10/29 13:06:16;;;;;;;9.45;8.38;;;19.20;99.90;;;;;;5111291;28;20211;-60
2021/10/29 13:08:48;;;;;;;11.13;8.68;;;19.20;99.90;;;;;;5111432;28;20223;-61
2021/10/29 13:11:16;;;;;;;41.00;31.98;;;19.20;99.90;;;;;;5111074;28;20614;-61
2021/10/29 13:13:45;;;;;;;12.68;10.10;;;19.10;99.90;;;;;;5111262;28;20200;-61
2021/10/29 13:16:15;;;;;;;20.30;14.65;;;19.10;99.90;;;;;;5111495;28;20204;-61
2021/10/29 13:18:52;;;;;;;13.73;8.35;;;19.20;99.90;;;;;;5110819;28;20326;-61
2021/10/29 13:27:09;;;;;;;10.05;7.22;;;19.50;99.90;;;;;;5097732;27;20212;-61
2021/10/29 13:38:16;;;;;;;10.02;7.63;;;19.40;99.90;;;;;;5114466;27;20279;-61
2021/10/29 13:51:45;;;;;;;10.00;7.07;;;19.60;99.90;;;;;;5115115;28;20226;-61
2021/10/29 13:54:18;;;;;;;9.93;6.93;;;19.60;99.90;;;;;;5114524;28;20207;-61
2021/10/29 13:57:10;;;;;;;9.40;6.10;;;19.60;99.90;;;;;;5114574;28;20315;-61
2021/10/29 13:59:51;;;;;;;6.88;4.50;;;19.70;99.90;;;;;;5114230;28;20609;-61
2021/10/29 14:24:31;;;;;;;5.45;4.28;;;19.60;99.90;;;;;;5113641;28;20594;-61
2021/10/29 14:29:45;;;;;;;5.70;4.38;;;19.40;99.90;;;;;;5113729;28;20206;-61
2021/10/29 14:32:16;;;;;;;5.45;3.83;;;19.30;99.90;;;;;;5113630;28;20220;-62
2021/10/29 14:34:46;;;;;;;5.78;3.88;;;19.30;99.90;;;;;;5113879;28;20638;-62
2021/10/29 14:37:18;;;;;;;5.13;4.35;;;19.20;99.90;;;;;;5113810;28;20409;-61
2021/10/29 14:39:52;;;;;;;5.53;4.18;;;19.20;99.90;;;;;;5113256;28;20215;-61
2021/10/29 14:42:26;;;;;;;7.65;4.13;;;19.10;99.90;;;;;;5114042;28;20570;-62
2021/10/29 14:44:59;;;;;;;5.32;4.20;;;19.00;99.90;;;;;;5113502;28;20200;-61
2021/10/29 14:47:35;;;;;;;4.78;3.83;;;19.10;99.90;;;;;;5113920;28;20314;-61
2021/10/29 14:50:22;;;;;;;6.00;3.83;;;19.00;99.90;;;;;;5114095;28;20588;-61
2021/10/29 14:53:11;;;;;;;8.68;5.50;;;19.00;99.90;;;;;;5114577;28;20203;-61
2021/10/29 15:01:22;;;;;;;4.22;3.67;;;18.50;99.90;;;;;;5113626;28;20249;-62
2021/10/29 15:29:17;;;;;;;7.57;5.75;;;17.80;99.90;;;;;;5107351;28;20253;-61
2021/10/29 15:32:01;;;;;;;7.78;4.95;;;17.50;99.90;;;;;;5112954;28;20229;-61
2021/10/29 15:42:50;;;;;;;6.80;3.57;;;17.10;99.90;;;;;;5112790;28;20210;-62
2021/10/29 15:45:22;;;;;;;5.87;3.60;;;16.90;99.90;;;;;;5112967;28;20268;-62
2021/10/29 15:47:59;;;;;;;3.33;2.80;;;16.80;99.90;;;;;;5113017;28;20223;-62
2021/10/29 15:50:32;;;;;;;22.60;17.23;;;16.60;99.90;;;;;;5112794;28;20635;-62
2021/10/29 15:52:58;;;;;;;7.57;5.63;;;16.40;99.90;;;;;;5113232;28;20519;-60
2021/10/29 15:55:33;;;;;;;6.43;3.77;;;16.30;99.90;;;;;;5112641;28;20582;-61
2021/10/29 16:03:34;;;;;;;8.47;5.37;;;15.80;99.90;;;;;;5101557;27;20202;-61
2021/10/29 16:17:04;;;;;;;13.00;7.97;;;14.90;99.90;;;;;;5112601;28;20284;-61
2021/10/29 16:19:31;;;;;;;5.60;3.37;;;14.70;99.90;;;;;;5112311;28;20286;-61
2021/10/29 16:21:58;;;;;;;4.83;3.50;;;14.50;99.90;;;;;;5112191;28;20584;-61
2021/10/29 16:24:25;;;;;;;5.40;3.53;;;14.40;99.90;;;;;;5112183;28;20208;-62
2021/10/29 16:26:54;;;;;;;8.07;4.77;;;14.20;99.90;;;;;;5112125;28;20220;-60
2021/10/29 16:29:23;;;;;;;6.57;4.10;;;14.10;99.90;;;;;;5112066;28;20204;-61